Time;durP1;ratioP1;P1;durP2;ratioP2;P2;SDS_P1;SDS_P2;PMS_P1;PMS_P2;Temp;Humidity;BMP_temperature;BMP_pressure;BME280_temperature;BME280_humidity;BME280_pressure;Samples;Min_cycle;Max_cycle;Signal;HPM_P1;HPM_P2
2021/09/30 00:00:36;;;;;;;5.03;1.10;;;9.80;99.90;;;;;;5090182;28;20382;-55
2021/09/30 00:03:01;;;;;;;3.80;1.00;;;9.70;99.90;;;;;;5090882;28;20402;-55
2021/09/30 00:05:27;;;;;;;6.10;1.30;;;9.70;99.90;;;;;;5090060;28;20419;-54
2021/09/30 00:07:53;;;;;;;5.60;1.50;;;9.60;99.90;;;;;;5090638;28;20420;-54
2021/09/30 00:10:22;;;;;;;4.90;1.17;;;9.60;99.90;;;;;;5090872;28;20821;-54
2021/09/30 00:12:56;;;;;;;4.20;1.20;;;9.60;99.90;;;;;;5090373;28;20465;-54
2021/09/30 00:15:35;;;;;;;5.82;1.35;;;9.50;99.90;;;;;;5090428;28;20382;-56
2021/09/30 00:40:04;;;;;;;5.30;1.30;;;9.60;99.90;;;;;;5089316;28;20505;-55
2021/09/30 00:53:38;;;;;;;4.30;1.30;;;9.50;99.90;;;;;;5089808;28;20874;-54
2021/09/30 02:31:07;;;;;;;5.50;1.65;;;8.90;99.90;;;;;;5091702;28;20415;-54
2021/09/30 02:58:31;;;;;;;5.25;1.42;;;8.80;99.90;;;;;;5091035;28;20420;-54
2021/09/30 03:01:10;;;;;;;5.80;1.70;;;8.80;99.90;;;;;;5092249;28;20469;-54
2021/09/30 03:03:37;;;;;;;6.68;1.83;;;8.80;99.90;;;;;;5091381;28;20386;-55
2021/09/30 03:06:07;;;;;;;5.60;1.70;;;8.70;99.90;;;;;;5090739;28;20390;-54
2021/09/30 03:08:41;;;;;;;4.43;1.40;;;8.70;99.90;;;;;;5091018;28;20390;-55
2021/09/30 03:11:10;;;;;;;5.22;1.55;;;8.60;99.90;;;;;;5092079;28;20378;-54
2021/09/30 03:13:37;;;;;;;4.80;1.50;;;8.50;99.90;;;;;;5089851;28;20748;-54
2021/09/30 03:18:50;;;;;;;4.30;1.40;;;8.50;99.90;;;;;;5091087;28;20402;-54
2021/09/30 03:23:46;;;;;;;5.75;1.80;;;8.50;99.90;;;;;;5091063;28;20437;-54
2021/09/30 03:26:14;;;;;;;7.88;1.70;;;8.50;99.90;;;;;;5091832;28;20469;-55
2021/09/30 03:28:41;;;;;;;5.30;1.75;;;8.30;99.90;;;;;;5090965;28;20394;-54
2021/09/30 03:31:07;;;;;;;8.70;2.00;;;8.30;99.90;;;;;;5090437;28;20467;-54
2021/09/30 03:33:34;;;;;;;8.30;2.10;;;8.30;99.90;;;;;;5090546;28;20465;-54
2021/09/30 03:36:00;;;;;;;6.22;1.80;;;8.30;99.90;;;;;;5090336;28;20773;-54
2021/09/30 03:38:26;;;;;;;6.22;1.70;;;8.40;99.90;;;;;;5090609;28;20413;-56
2021/09/30 03:40:52;;;;;;;5.80;1.90;;;8.20;99.90;;;;;;5090849;28;20386;-54
2021/09/30 03:43:19;;;;;;;5.65;1.90;;;8.10;99.90;;;;;;5091236;28;20739;-54
2021/09/30 03:45:45;;;;;;;7.60;1.90;;;7.90;99.90;;;;;;5089067;28;20983;-54
2021/09/30 03:48:11;;;;;;;5.30;2.00;;;8.10;99.90;;;;;;5090896;28;20421;-54
2021/09/30 03:50:53;;;;;;;5.53;1.75;;;8.00;99.90;;;;;;5090369;28;20405;-54
2021/09/30 03:53:42;;;;;;;6.30;2.15;;;8.00;99.90;;;;;;5091135;28;20381;-54
2021/09/30 03:56:28;;;;;;;5.80;2.10;;;8.00;99.90;;;;;;5090279;28;20409;-54
2021/09/30 03:59:18;;;;;;;6.38;2.30;;;8.00;99.90;;;;;;5090306;28;20422;-53
2021/09/30 04:01:44;;;;;;;6.82;2.00;;;8.00;99.90;;;;;;5079994;28;20427;-54
2021/09/30 04:04:11;;;;;;;5.95;2.30;;;8.00;99.90;;;;;;5083195;28;20875;-53
2021/09/30 04:06:37;;;;;;;6.18;1.92;;;8.00;99.90;;;;;;5075938;28;20859;-54
2021/09/30 04:09:02;;;;;;;8.30;2.33;;;7.90;99.90;;;;;;5075914;28;20387;-53
2021/09/30 04:11:28;;;;;;;6.70;2.30;;;7.90;99.90;;;;;;5069550;28;20442;-55
2021/09/30 04:13:54;;;;;;;5.10;2.10;;;7.90;99.90;;;;;;5070795;28;20444;-54
2021/09/30 04:16:19;;;;;;;5.17;2.10;;;7.80;99.90;;;;;;5077432;28;20397;-54
2021/09/30 04:18:45;;;;;;;5.10;2.30;;;7.80;99.90;;;;;;5080624;28;20424;-53
2021/09/30 04:21:10;;;;;;;6.87;2.10;;;7.90;99.90;;;;;;5081189;28;20846;-54
2021/09/30 04:23:36;;;;;;;5.33;2.60;;;7.90;99.90;;;;;;5078579;28;20382;-53
2021/09/30 04:26:02;;;;;;;4.73;2.13;;;8.00;99.90;;;;;;5088256;28;20929;-54
2021/09/30 04:28:28;;;;;;;9.63;2.53;;;8.00;99.90;;;;;;5090710;28;20394;-55
2021/09/30 04:30:53;;;;;;;8.35;3.00;;;8.00;99.90;;;;;;5089729;28;20377;-53
2021/09/30 04:33:19;;;;;;;5.50;2.30;;;8.00;99.90;;;;;;5089859;28;20378;-53
2021/09/30 04:35:44;;;;;;;6.53;2.38;;;8.00;99.90;;;;;;5089171;28;20377;-53
2021/09/30 04:38:10;;;;;;;7.90;2.57;;;8.20;99.90;;;;;;5089682;28;20919;-53
2021/09/30 04:40:36;;;;;;;5.60;2.17;;;8.20;99.90;;;;;;5088733;28;20386;-53
2021/09/30 04:43:02;;;;;;;7.10;2.53;;;8.10;99.90;;;;;;5089421;28;20795;-53
2021/09/30 04:45:28;;;;;;;5.65;2.20;;;8.10;99.90;;;;;;5089069;28;20406;-55
2021/09/30 04:47:54;;;;;;;7.28;2.38;;;8.00;99.90;;;;;;5089032;28;21132;-53
2021/09/30 04:50:19;;;;;;;6.90;2.17;;;8.10;99.90;;;;;;5089687;28;20378;-54
2021/09/30 04:52:45;;;;;;;8.10;2.33;;;8.10;99.90;;;;;;5087248;28;20399;-54
2021/09/30 04:55:11;;;;;;;7.50;2.50;;;8.20;99.90;;;;;;5095714;28;20398;-53
2021/09/30 04:57:36;;;;;;;5.10;2.22;;;8.10;99.90;;;;;;5095931;28;20419;-54
2021/09/30 05:00:04;;;;;;;5.90;2.60;;;8.10;99.90;;;;;;5087115;28;20413;-53
2021/09/30 05:02:29;;;;;;;5.90;2.20;;;8.10;99.90;;;;;;5085031;28;20390;-54
2021/09/30 05:04:55;;;;;;;5.63;2.33;;;8.10;99.90;;;;;;5088337;28;20392;-53
2021/09/30 05:07:20;;;;;;;6.40;2.57;;;8.10;99.90;;;;;;5089527;28;20773;-53
2021/09/30 05:09:50;;;;;;;7.13;2.60;;;8.00;99.90;;;;;;5089006;28;20410;-53
2021/09/30 05:12:16;;;;;;;6.07;2.20;;;8.00;99.90;;;;;;5089604;28;20424;-55
2021/09/30 05:14:42;;;;;;;6.72;3.10;;;8.10;99.90;;;;;;5088712;28;20410;-54
2021/09/30 05:17:08;;;;;;;6.63;3.00;;;8.00;99.90;;;;;;5089844;28;20417;-53
2021/09/30 05:19:34;;;;;;;8.80;2.90;;;7.90;99.90;;;;;;5088553;28;20408;-54
2021/09/30 05:21:59;;;;;;;7.00;2.67;;;7.80;99.90;;;;;;5089195;28;20393;-53
2021/09/30 05:24:25;;;;;;;5.50;2.50;;;7.80;99.90;;;;;;5096071;28;20412;-53
2021/09/30 05:26:51;;;;;;;8.43;2.73;;;7.70;99.90;;;;;;5098476;28;20479;-53
2021/09/30 05:29:16;;;;;;;7.20;2.60;;;7.70;99.90;;;;;;5096981;28;20390;-53
2021/09/30 05:31:42;;;;;;;9.20;2.80;;;7.80;99.90;;;;;;5088081;28;20389;-53
2021/09/30 05:34:07;;;;;;;11.40;3.20;;;7.70;99.90;;;;;;5089079;28;20378;-54
2021/09/30 05:36:33;;;;;;;10.20;3.23;;;7.80;99.90;;;;;;5087845;28;20371;-53
2021/09/30 05:38:59;;;;;;;8.95;2.58;;;7.90;99.90;;;;;;5088926;28;20978;-53
2021/09/30 05:41:25;;;;;;;5.82;2.40;;;7.90;99.90;;;;;;5083475;28;20913;-53
2021/09/30 05:44:08;;;;;;;6.00;2.47;;;8.00;99.90;;;;;;5073055;28;20415;-53
2021/09/30 05:46:43;;;;;;;7.03;2.40;;;8.00;99.90;;;;;;5070658;28;20753;-54
2021/09/30 05:49:10;;;;;;;7.53;3.03;;;8.00;99.90;;;;;;5071892;28;20414;-53
2021/09/30 05:51:36;;;;;;;5.85;2.60;;;8.20;99.90;;;;;;5080471;28;20408;-54
2021/09/30 05:54:02;;;;;;;5.45;2.50;;;8.40;99.90;;;;;;5083400;28;20396;-54
2021/09/30 05:56:28;;;;;;;5.38;1.92;;;9.20;99.90;;;;;;5074658;28;20412;-56
2021/09/30 05:58:54;;;;;;;5.78;1.75;;;10.30;99.90;;;;;;5073448;28;20419;-53
2021/09/30 06:14:14;;;;;;;5.80;1.60;;;16.40;99.90;;;;;;5080663;28;20407;-53
2021/09/30 06:16:49;;;;;;;6.88;1.70;;;17.20;99.90;;;;;;5097065;28;20385;-53
2021/09/30 06:19:20;;;;;;;6.63;2.00;;;17.80;99.90;;;;;;5068249;28;21116;-53
2021/09/30 06:21:50;;;;;;;4.78;1.60;;;17.70;99.90;;;;;;5087831;28;20878;-54
2021/09/30 06:24:18;;;;;;;6.90;1.70;;;18.00;99.90;;;;;;5082347;28;20493;-53
2021/09/30 06:26:44;;;;;;;5.50;1.70;;;18.60;99.90;;;;;;5075564;28;20404;-55
2021/09/30 06:29:10;;;;;;;6.10;1.70;;;19.50;97.60;;;;;;5075342;28;20415;-53
2021/09/30 06:31:36;;;;;;;5.30;1.45;;;19.40;96.10;;;;;;5074469;28;20396;-53
2021/09/30 06:34:02;;;;;;;6.05;1.80;;;18.90;96.60;;;;;;5075926;28;20418;-53
2021/09/30 06:36:28;;;;;;;5.13;1.77;;;20.20;97.50;;;;;;5072947;28;20414;-55
2021/09/30 06:38:54;;;;;;;5.70;1.80;;;17.40;97.40;;;;;;5079419;28;20430;-54
2021/09/30 06:41:19;;;;;;;4.47;1.20;;;18.90;97.80;;;;;;5091328;28;20382;-55
2021/09/30 06:43:45;;;;;;;4.93;1.30;;;19.80;96.00;;;;;;5087141;28;20382;-57
2021/09/30 06:46:11;;;;;;;6.82;1.90;;;20.00;94.80;;;;;;5078935;28;20463;-55
2021/09/30 06:48:36;;;;;;;8.23;1.60;;;20.20;94.30;;;;;;5071543;28;20443;-55
2021/09/30 06:51:03;;;;;;;8.32;7.07;;;20.90;93.10;;;;;;5082115;28;20396;-55
2021/09/30 06:53:28;;;;;;;8.50;7.32;;;21.20;91.70;;;;;;5078099;28;20421;-57
2021/09/30 06:55:59;;;;;;;8.82;6.38;;;21.10;91.10;;;;;;5086698;28;20450;-54
2021/09/30 06:58:25;;;;;;;7.45;2.40;;;21.30;91.30;;;;;;5069570;28;20864;-55
2021/09/30 07:00:56;;;;;;;7.10;1.50;;;20.50;90.60;;;;;;5080634;28;20417;-54
2021/09/30 07:03:26;;;;;;;5.35;1.60;;;20.00;92.20;;;;;;5083614;28;20404;-54
2021/09/30 07:05:52;;;;;;;7.07;1.60;;;20.10;92.00;;;;;;5084830;28;20451;-54
2021/09/30 07:08:18;;;;;;;6.50;1.80;;;20.30;91.00;;;;;;5089253;28;20419;-53
2021/09/30 07:10:44;;;;;;;4.80;1.60;;;20.10;91.70;;;;;;5083692;28;20885;-54
2021/09/30 07:13:09;;;;;;;6.50;1.40;;;20.20;92.40;;;;;;5071376;28;20546;-54
2021/09/30 07:15:35;;;;;;;7.90;7.10;;;20.50;92.00;;;;;;5068910;28;20517;-54
2021/09/30 07:18:30;;;;;;;8.90;8.00;;;21.60;90.90;;;;;;5070548;28;20430;-54
2021/09/30 07:21:03;;;;;;;8.60;7.90;;;21.50;89.90;;;;;;5072966;28;20447;-54
2021/09/30 07:23:29;;;;;;;8.15;7.30;;;21.70;88.40;;;;;;5074478;28;20404;-56
2021/09/30 07:25:55;;;;;;;8.40;6.85;;;20.90;87.80;;;;;;5076818;28;20410;-54
2021/09/30 07:28:21;;;;;;;6.85;3.15;;;20.00;89.80;;;;;;5077052;28;20872;-54
2021/09/30 07:30:49;;;;;;;6.05;2.83;;;19.10;92.20;;;;;;5078974;28;20395;-54
2021/09/30 07:33:16;;;;;;;5.90;2.00;;;19.20;92.80;;;;;;5081285;28;20748;-54
2021/09/30 07:35:42;;;;;;;5.72;2.40;;;19.80;91.80;;;;;;5079945;28;20410;-54
2021/09/30 07:38:08;;;;;;;7.20;4.03;;;20.20;92.70;;;;;;5077486;28;20408;-54
2021/09/30 07:40:34;;;;;;;9.15;4.72;;;20.90;91.10;;;;;;5084662;28;20399;-54
2021/09/30 07:42:59;;;;;;;6.50;5.00;;;21.10;90.30;;;;;;5079170;28;20931;-54
2021/09/30 07:45:26;;;;;;;8.10;5.50;;;21.20;89.60;;;;;;5077755;28;20415;-54
2021/09/30 07:47:52;;;;;;;7.75;5.55;;;21.50;89.50;;;;;;5076256;28;20525;-55
2021/09/30 07:50:18;;;;;;;6.60;5.20;;;21.60;86.70;;;;;;5082669;28;20384;-54
2021/09/30 07:52:44;;;;;;;7.00;5.10;;;21.00;87.70;;;;;;5074359;28;20482;-54
2021/09/30 07:55:11;;;;;;;8.20;5.03;;;21.60;87.90;;;;;;5092480;28;20859;-54
2021/09/30 07:57:37;;;;;;;10.60;5.10;;;21.40;85.70;;;;;;5087679;28;20428;-54
2021/09/30 08:00:05;;;;;;;7.82;5.13;;;21.40;87.90;;;;;;5079482;28;20409;-55
2021/09/30 08:02:31;;;;;;;7.70;4.68;;;21.90;85.90;;;;;;5086104;28;20402;-56
2021/09/30 08:04:56;;;;;;;8.93;5.60;;;21.20;86.10;;;;;;5076208;28;20408;-55
2021/09/30 08:07:22;;;;;;;8.05;4.68;;;20.20;88.60;;;;;;5078000;28;20878;-54
2021/09/30 08:09:48;;;;;;;10.57;4.90;;;20.00;90.70;;;;;;5072019;28;20404;-55
2021/09/30 08:12:13;;;;;;;7.78;5.10;;;20.50;90.50;;;;;;5079193;28;20402;-54
2021/09/30 08:14:39;;;;;;;8.00;4.87;;;21.50;88.90;;;;;;5086948;28;20406;-54
2021/09/30 08:17:05;;;;;;;8.87;4.40;;;22.00;85.70;;;;;;5085947;28;20465;-54
2021/09/30 08:19:31;;;;;;;7.18;4.60;;;21.90;85.20;;;;;;5081205;28;20410;-59
2021/09/30 08:21:57;;;;;;;8.30;4.70;;;22.00;85.00;;;;;;5080271;28;20414;-54
2021/09/30 08:24:22;;;;;;;8.33;4.93;;;21.80;85.10;;;;;;5089359;28;20378;-55
2021/09/30 08:26:49;;;;;;;6.60;4.50;;;21.60;84.40;;;;;;5086576;28;20386;-55
2021/09/30 08:29:16;;;;;;;6.95;4.15;;;21.60;84.90;;;;;;5068799;28;21046;-54
2021/09/30 08:31:42;;;;;;;8.40;5.40;;;21.60;81.90;;;;;;5068849;28;20461;-55
2021/09/30 08:34:08;;;;;;;8.82;4.78;;;21.60;82.80;;;;;;5085627;28;20455;-55
2021/09/30 08:36:34;;;;;;;7.20;4.57;;;22.30;80.00;;;;;;5088628;28;20386;-57
2021/09/30 08:39:02;;;;;;;6.70;5.00;;;22.50;78.00;;;;;;5086892;28;20497;-57
2021/09/30 08:41:28;;;;;;;6.68;4.70;;;22.70;77.90;;;;;;5086103;28;20441;-56
2021/09/30 08:43:54;;;;;;;9.07;4.30;;;23.10;74.30;;;;;;5088481;28;20459;-56
2021/09/30 08:46:20;;;;;;;9.98;5.20;;;23.10;72.70;;;;;;5089378;28;20763;-56
2021/09/30 08:48:46;;;;;;;6.40;5.22;;;22.70;72.30;;;;;;5088852;28;20478;-56
2021/09/30 08:51:13;;;;;;;7.63;4.60;;;21.80;73.80;;;;;;5088725;28;20414;-56
2021/09/30 08:53:39;;;;;;;7.00;4.93;;;20.80;73.60;;;;;;5087805;28;20370;-56
2021/09/30 08:56:07;;;;;;;8.05;5.00;;;19.00;77.50;;;;;;5087545;28;20758;-56
2021/09/30 08:58:34;;;;;;;6.90;4.20;;;18.50;82.20;;;;;;5088025;28;20418;-57
2021/09/30 09:01:00;;;;;;;7.88;4.30;;;17.90;85.40;;;;;;5089083;28;20867;-56
2021/09/30 09:03:33;;;;;;;8.23;4.43;;;17.30;83.30;;;;;;5089115;28;20382;-56
2021/09/30 09:05:59;;;;;;;6.38;4.40;;;17.00;84.80;;;;;;5087688;28;20950;-55
2021/09/30 09:08:25;;;;;;;7.72;5.85;;;16.80;87.10;;;;;;5088531;28;20443;-56
2021/09/30 09:10:54;;;;;;;7.95;4.68;;;16.60;88.90;;;;;;5088611;28;20390;-56
2021/09/30 09:13:21;;;;;;;4.93;1.30;;;16.20;90.80;;;;;;5088634;28;20386;-56
2021/09/30 09:15:54;;;;;;;6.22;1.30;;;15.90;92.50;;;;;;5088441;28;20382;-55
2021/09/30 09:18:33;;;;;;;7.80;1.10;;;15.90;91.80;;;;;;5089318;28;20402;-55
2021/09/30 09:21:15;;;;;;;6.32;1.10;;;15.90;91.20;;;;;;5089075;28;20786;-55
2021/09/30 09:23:56;;;;;;;4.65;0.90;;;16.10;91.40;;;;;;5088543;28;20382;-57
2021/09/30 09:26:37;;;;;;;6.10;1.10;;;16.10;92.60;;;;;;5089407;28;20398;-57
2021/09/30 09:29:13;;;;;;;5.45;1.00;;;16.20;93.20;;;;;;5089864;28;20393;-57
2021/09/30 09:31:43;;;;;;;7.50;1.20;;;16.00;91.80;;;;;;5088312;28;20382;-55
2021/09/30 09:34:20;;;;;;;4.80;1.20;;;17.90;91.50;;;;;;5089331;28;20875;-55
2021/09/30 09:36:49;;;;;;;6.15;1.27;;;16.50;90.30;;;;;;5088784;28;20387;-55
2021/09/30 09:39:16;;;;;;;6.50;1.10;;;17.10;90.20;;;;;;5089203;28;20421;-55
2021/09/30 09:41:41;;;;;;;5.30;1.00;;;17.60;87.80;;;;;;5088101;28;20370;-56
2021/09/30 09:44:08;;;;;;;6.80;1.10;;;17.80;85.40;;;;;;5089174;28;20384;-56
2021/09/30 09:46:39;;;;;;;7.25;1.20;;;18.40;85.60;;;;;;5088699;28;20370;-57
2021/09/30 09:49:13;;;;;;;6.63;1.40;;;19.80;79.70;;;;;;5089240;28;20378;-56
2021/09/30 09:51:47;;;;;;;4.20;1.00;;;20.40;75.10;;;;;;5088210;28;20404;-55
2021/09/30 09:54:21;;;;;;;7.15;1.17;;;19.10;77.90;;;;;;5088956;28;20378;-55
2021/09/30 09:56:48;;;;;;;8.00;1.27;;;18.40;82.70;;;;;;5087780;28;20483;-55
2021/09/30 09:59:31;;;;;;;6.10;2.00;;;18.30;83.20;;;;;;5089088;28;20414;-55
2021/09/30 10:01:58;;;;;;;5.00;1.00;;;18.30;80.30;;;;;;5087869;28;20378;-55
2021/09/30 10:04:26;;;;;;;5.50;1.00;;;17.60;79.60;;;;;;5089080;28;20386;-55
2021/09/30 10:06:52;;;;;;;6.00;1.10;;;17.10;82.20;;;;;;5087872;28;21022;-55
2021/09/30 10:09:17;;;;;;;7.38;1.33;;;17.10;83.70;;;;;;5092630;28;20847;-55
2021/09/30 10:11:43;;;;;;;6.70;1.00;;;17.90;83.00;;;;;;5090065;28;20539;-56
2021/09/30 10:14:09;;;;;;;4.90;1.40;;;19.50;77.80;;;;;;5093046;28;20393;-55
2021/09/30 10:16:36;;;;;;;5.80;1.15;;;20.70;71.40;;;;;;5092216;28;20378;-56
2021/09/30 10:19:05;;;;;;;5.40;1.20;;;19.80;73.90;;;;;;5092115;28;20484;-55
2021/09/30 10:21:31;;;;;;;4.90;1.20;;;19.10;72.50;;;;;;5092143;28;20382;-55
2021/09/30 10:24:16;;;;;;;5.00;1.05;;;18.70;74.70;;;;;;5108310;28;20384;-55
2021/09/30 10:26:45;;;;;;;5.10;0.90;;;19.10;72.20;;;;;;5111825;28;20938;-55
2021/09/30 10:29:45;;;;;;;4.47;0.93;;;20.30;68.40;;;;;;5113140;28;20423;-56
2021/09/30 10:32:16;;;;;;;4.97;1.10;;;21.50;64.70;;;;;;5108709;28;20403;-57
2021/09/30 10:34:45;;;;;;;4.50;0.80;;;21.00;63.80;;;;;;5109977;28;20368;-56
2021/09/30 10:37:26;;;;;;;5.90;1.00;;;19.60;66.20;;;;;;5110852;28;20414;-56
2021/09/30 10:40:15;;;;;;;5.90;1.00;;;18.70;67.40;;;;;;5111442;28;20412;-55
2021/09/30 10:42:53;;;;;;;4.85;0.98;;;18.80;68.40;;;;;;5111706;28;20412;-55
2021/09/30 10:45:20;;;;;;;5.20;1.00;;;18.90;69.00;;;;;;5111288;28;20742;-54
2021/09/30 10:47:47;;;;;;;5.90;0.97;;;18.70;69.10;;;;;;5111818;28;20897;-55
2021/09/30 10:50:13;;;;;;;5.40;1.20;;;18.50;70.40;;;;;;5112388;28;20737;-55
2021/09/30 10:52:50;;;;;;;4.70;0.90;;;19.00;71.70;;;;;;5110586;28;20377;-56
2021/09/30 10:55:16;;;;;;;5.88;1.10;;;20.10;70.30;;;;;;5111882;28;20376;-56
2021/09/30 10:57:50;;;;;;;5.45;1.10;;;19.90;64.70;;;;;;5102084;28;20947;-56
2021/09/30 11:00:19;;;;;;;7.68;1.20;;;19.30;66.20;;;;;;5091951;28;20402;-54
2021/09/30 11:03:00;;;;;;;4.10;0.82;;;19.10;69.50;;;;;;5090998;28;20383;-54
2021/09/30 11:05:30;;;;;;;4.55;1.20;;;19.00;69.50;;;;;;5091722;28;20378;-55
2021/09/30 11:08:18;;;;;;;7.28;1.13;;;18.90;70.30;;;;;;5090636;28;21051;-55
2021/09/30 11:11:06;;;;;;;6.60;1.00;;;18.50;73.00;;;;;;5090667;28;20448;-55
2021/09/30 11:13:54;;;;;;;5.10;1.00;;;18.10;72.50;;;;;;5091166;28;20409;-55
2021/09/30 11:16:36;;;;;;;6.70;1.10;;;18.20;71.50;;;;;;5091332;28;20374;-54
2021/09/30 11:19:03;;;;;;;5.85;0.98;;;18.60;69.50;;;;;;5090343;28;20412;-56
2021/09/30 11:21:29;;;;;;;5.20;1.00;;;18.60;69.50;;;;;;5091025;28;20472;-56
2021/09/30 11:23:56;;;;;;;4.30;0.90;;;18.40;69.50;;;;;;5106116;28;20507;-56
2021/09/30 11:26:22;;;;;;;5.57;1.23;;;18.10;71.00;;;;;;5110281;28;20388;-56
2021/09/30 11:28:48;;;;;;;6.23;1.30;;;17.80;71.90;;;;;;5110754;28;20479;-55
2021/09/30 11:31:35;;;;;;;5.05;1.13;;;17.70;72.50;;;;;;5111511;28;20407;-54
2021/09/30 11:34:02;;;;;;;6.40;0.90;;;18.30;71.90;;;;;;5110646;28;20376;-56
2021/09/30 11:36:32;;;;;;;5.00;1.00;;;18.60;68.10;;;;;;5111496;28;20395;-56
2021/09/30 11:38:58;;;;;;;4.88;0.90;;;18.80;67.90;;;;;;5110492;28;20517;-56
2021/09/30 11:41:31;;;;;;;5.35;0.88;;;18.70;67.80;;;;;;5111374;28;20435;-56
2021/09/30 11:43:57;;;;;;;3.80;0.60;;;18.00;67.80;;;;;;5110508;28;20433;-56
2021/09/30 11:46:36;;;;;;;6.78;1.10;;;17.80;68.90;;;;;;5111100;28;20460;-55
2021/09/30 11:49:06;;;;;;;6.17;0.90;;;18.20;69.30;;;;;;5110996;28;20404;-55
2021/09/30 11:51:38;;;;;;;4.10;0.70;;;18.60;66.40;;;;;;5110836;28;20380;-55
2021/09/30 11:54:05;;;;;;;7.50;1.10;;;18.90;64.80;;;;;;5110545;28;20434;-55
2021/09/30 11:56:41;;;;;;;7.15;1.27;;;18.80;64.50;;;;;;5110719;28;20443;-55
2021/09/30 11:59:07;;;;;;;5.60;1.10;;;18.90;65.60;;;;;;5070272;28;20419;-55
2021/09/30 12:01:34;;;;;;;6.10;0.80;;;19.20;63.60;;;;;;5070446;28;20380;-55
2021/09/30 12:04:00;;;;;;;8.20;0.88;;;19.10;64.60;;;;;;5069020;28;20403;-55
2021/09/30 12:06:44;;;;;;;6.43;1.00;;;19.20;64.50;;;;;;5069747;28;20380;-54
2021/09/30 12:09:12;;;;;;;5.35;0.70;;;19.40;66.00;;;;;;5070309;28;20445;-54
2021/09/30 12:11:40;;;;;;;4.83;0.73;;;19.70;63.40;;;;;;5068064;28;20375;-57
2021/09/30 12:14:07;;;;;;;4.68;0.80;;;19.10;60.60;;;;;;5069976;28;20428;-56
2021/09/30 12:16:51;;;;;;;6.82;1.00;;;18.50;60.20;;;;;;5068603;28;20371;-55
2021/09/30 12:19:31;;;;;;;4.82;0.88;;;18.50;60.10;;;;;;5070098;28;20410;-56
2021/09/30 12:21:57;;;;;;;6.50;1.00;;;18.70;61.80;;;;;;5069575;28;20376;-55
2021/09/30 12:24:27;;;;;;;7.05;1.52;;;18.80;60.90;;;;;;5109501;28;20384;-55
2021/09/30 12:26:54;;;;;;;5.37;0.97;;;18.90;61.50;;;;;;5109023;27;21214;-55
2021/09/30 12:29:20;;;;;;;5.45;0.93;;;18.90;58.20;;;;;;5110127;28;20389;-55
2021/09/30 12:32:09;;;;;;;5.35;0.90;;;18.40;58.80;;;;;;5109634;28;20373;-56
2021/09/30 12:34:34;;;;;;;4.50;0.80;;;18.40;60.60;;;;;;5110019;28;20373;-56
2021/09/30 12:37:00;;;;;;;5.80;0.80;;;18.40;59.90;;;;;;5109339;28;20383;-54
2021/09/30 12:39:28;;;;;;;4.60;0.70;;;18.80;62.80;;;;;;5110156;28;20412;-54
2021/09/30 12:42:09;;;;;;;5.53;0.80;;;19.10;59.20;;;;;;5109238;28;20376;-56
2021/09/30 12:44:34;;;;;;;5.20;0.90;;;18.70;57.60;;;;;;5109854;28;20962;-56
2021/09/30 12:47:00;;;;;;;5.00;0.73;;;18.90;57.30;;;;;;5109429;28;20372;-56
2021/09/30 12:49:26;;;;;;;4.80;0.75;;;18.90;56.50;;;;;;5110468;28;20399;-56
2021/09/30 12:51:52;;;;;;;5.35;0.95;;;18.80;56.30;;;;;;5109220;28;20387;-56
2021/09/30 12:54:25;;;;;;;6.40;1.10;;;18.40;57.60;;;;;;5109597;28;20368;-56
2021/09/30 12:56:51;;;;;;;4.70;0.57;;;18.40;59.30;;;;;;5107186;28;20407;-54
2021/09/30 12:59:20;;;;;;;4.18;0.68;;;18.60;58.50;;;;;;5088509;28;20538;-54
2021/09/30 13:01:45;;;;;;;4.20;0.80;;;18.80;59.70;;;;;;5088785;28;20449;-54
2021/09/30 13:04:25;;;;;;;4.57;0.80;;;18.70;58.60;;;;;;5089623;28;20374;-54
2021/09/30 13:06:50;;;;;;;4.40;1.13;;;18.60;58.00;;;;;;5088557;28;20381;-54
2021/09/30 13:09:39;;;;;;;4.90;0.80;;;18.70;57.40;;;;;;5089133;28;20918;-54
2021/09/30 13:12:14;;;;;;;3.92;0.73;;;18.70;58.00;;;;;;5088848;28;20476;-54
2021/09/30 13:14:52;;;;;;;8.10;1.10;;;18.80;57.60;;;;;;5088811;28;20770;-55
2021/09/30 13:17:26;;;;;;;6.70;1.00;;;18.80;57.70;;;;;;5089254;28;20840;-54
2021/09/30 13:19:55;;;;;;;3.90;0.70;;;18.90;58.50;;;;;;5087025;28;20521;-55
2021/09/30 13:22:35;;;;;;;4.20;0.70;;;19.00;58.60;;;;;;5091925;28;20370;-55
2021/09/30 13:25:15;;;;;;;4.30;0.80;;;19.30;58.10;;;;;;5108671;28;20391;-55
2021/09/30 13:27:42;;;;;;;5.20;0.90;;;19.20;58.90;;;;;;5108931;28;20878;-55
2021/09/30 13:30:10;;;;;;;4.10;0.83;;;19.20;57.90;;;;;;5109000;28;20459;-55
2021/09/30 13:32:36;;;;;;;4.50;0.80;;;19.20;58.40;;;;;;5109015;28;20379;-55
2021/09/30 13:35:02;;;;;;;3.97;0.88;;;19.20;57.30;;;;;;5108243;28;21057;-55
2021/09/30 13:37:28;;;;;;;4.07;0.82;;;19.40;57.80;;;;;;5109035;28;20934;-54
2021/09/30 13:39:56;;;;;;;5.90;1.20;;;19.20;57.40;;;;;;5106875;28;20432;-54
2021/09/30 13:42:27;;;;;;;4.13;0.60;;;19.40;57.40;;;;;;5109452;28;20376;-54
2021/09/30 13:44:53;;;;;;;5.18;0.80;;;19.30;57.70;;;;;;5112437;28;20408;-55
2021/09/30 13:47:19;;;;;;;4.57;0.90;;;19.30;57.70;;;;;;5113377;28;20373;-55
2021/09/30 13:49:44;;;;;;;5.78;0.90;;;19.20;58.70;;;;;;5112286;28;20392;-55
2021/09/30 13:52:10;;;;;;;5.60;0.90;;;19.10;57.80;;;;;;5113136;28;20445;-55
2021/09/30 13:54:38;;;;;;;5.22;0.90;;;19.00;57.70;;;;;;5113183;28;20868;-55
2021/09/30 13:57:04;;;;;;;5.37;0.90;;;19.20;58.50;;;;;;5109896;28;20492;-55
2021/09/30 13:59:29;;;;;;;4.90;0.70;;;19.10;56.80;;;;;;5092372;28;20419;-55
2021/09/30 14:01:55;;;;;;;6.20;0.90;;;19.10;57.80;;;;;;5090942;28;20381;-55
2021/09/30 14:04:20;;;;;;;4.00;0.80;;;19.00;58.50;;;;;;5091464;28;20390;-55
2021/09/30 14:06:48;;;;;;;4.10;0.80;;;19.10;59.00;;;;;;5091789;28;20870;-55
2021/09/30 14:09:14;;;;;;;5.28;0.90;;;19.10;57.90;;;;;;5092768;28;20385;-55
2021/09/30 14:11:40;;;;;;;5.10;0.90;;;19.10;58.40;;;;;;5092377;28;20378;-56
2021/09/30 14:14:05;;;;;;;4.20;0.70;;;19.10;58.60;;;;;;5092232;28;20444;-55
2021/09/30 14:16:31;;;;;;;4.60;0.80;;;19.10;58.60;;;;;;5092328;28;20378;-55
2021/09/30 14:18:58;;;;;;;4.47;0.90;;;19.00;59.20;;;;;;5092014;28;20409;-55
2021/09/30 14:21:23;;;;;;;6.70;1.10;;;19.10;58.80;;;;;;5092630;28;20378;-55
2021/09/30 14:23:50;;;;;;;4.43;0.80;;;19.20;59.30;;;;;;5106611;28;20884;-55
2021/09/30 14:26:16;;;;;;;4.60;0.80;;;19.00;59.60;;;;;;5112541;28;20381;-55
2021/09/30 14:28:42;;;;;;;5.40;0.80;;;18.90;58.70;;;;;;5111913;28;20869;-56
2021/09/30 14:31:08;;;;;;;6.65;0.90;;;18.80;60.10;;;;;;5112613;28;20464;-55
2021/09/30 14:33:34;;;;;;;4.40;0.90;;;18.60;60.90;;;;;;5112947;28;20380;-55
2021/09/30 14:36:00;;;;;;;4.72;0.80;;;18.60;60.60;;;;;;5111436;28;20391;-55
2021/09/30 14:38:27;;;;;;;5.73;1.10;;;18.60;61.00;;;;;;5111801;28;20404;-55
2021/09/30 14:40:53;;;;;;;4.90;0.90;;;18.80;60.60;;;;;;5111797;28;20387;-55
2021/09/30 14:43:21;;;;;;;6.70;0.90;;;18.90;60.50;;;;;;5112211;28;20376;-55
2021/09/30 14:45:49;;;;;;;5.30;1.00;;;18.80;59.20;;;;;;5111083;28;20403;-55
2021/09/30 14:48:14;;;;;;;4.32;0.82;;;18.60;58.80;;;;;;5112878;28;20376;-55
2021/09/30 14:50:40;;;;;;;4.80;0.90;;;18.60;60.10;;;;;;5112039;28;20907;-55
2021/09/30 14:53:07;;;;;;;5.55;0.80;;;18.60;61.30;;;;;;5112190;28;20376;-55
2021/09/30 14:55:33;;;;;;;6.13;0.90;;;18.60;61.30;;;;;;5110883;28;20453;-55
2021/09/30 14:57:59;;;;;;;5.60;0.90;;;18.70;61.20;;;;;;5099756;28;21243;-54
2021/09/30 15:00:24;;;;;;;7.73;0.87;;;18.70;64.10;;;;;;5091424;28;20409;-55
2021/09/30 15:02:50;;;;;;;8.60;2.23;;;18.60;62.10;;;;;;5091047;28;20415;-55
2021/09/30 15:05:17;;;;;;;10.57;1.60;;;18.60;63.60;;;;;;5091302;28;20393;-55
2021/09/30 15:07:43;;;;;;;4.30;0.80;;;18.50;63.80;;;;;;5089860;28;20396;-56
2021/09/30 15:10:09;;;;;;;4.53;0.80;;;18.50;64.20;;;;;;5091760;28;20496;-55
2021/09/30 15:12:35;;;;;;;4.80;0.70;;;18.50;62.20;;;;;;5090187;28;20382;-55
2021/09/30 15:15:01;;;;;;;4.40;0.90;;;18.50;62.90;;;;;;5090837;28;20460;-55
2021/09/30 15:17:52;;;;;;;4.20;1.00;;;18.40;62.60;;;;;;5091271;28;20488;-55
2021/09/30 15:23:03;;;;;;;7.28;1.50;;;18.40;64.50;;;;;;5099008;28;20959;-55
2021/09/30 15:25:29;;;;;;;4.85;0.90;;;18.30;62.90;;;;;;5111603;28;20388;-55
2021/09/30 15:27:56;;;;;;;5.70;1.20;;;18.20;63.20;;;;;;5109471;28;20534;-55
2021/09/30 15:30:23;;;;;;;6.20;1.55;;;18.10;63.40;;;;;;5111788;28;20858;-57
2021/09/30 15:32:50;;;;;;;7.10;1.30;;;18.10;64.50;;;;;;5110967;28;20826;-55
2021/09/30 15:35:16;;;;;;;5.50;1.17;;;18.10;63.00;;;;;;5111390;28;20416;-55
2021/09/30 15:37:42;;;;;;;4.60;1.00;;;18.10;63.80;;;;;;5111644;28;20822;-56
2021/09/30 15:40:08;;;;;;;5.20;0.80;;;18.00;64.00;;;;;;5110856;28;20434;-55
2021/09/30 15:42:33;;;;;;;5.03;0.90;;;17.90;64.20;;;;;;5111303;28;20433;-56
2021/09/30 15:44:59;;;;;;;4.70;1.00;;;17.80;65.30;;;;;;5110686;28;20380;-56
2021/09/30 15:47:26;;;;;;;5.43;1.07;;;17.80;64.80;;;;;;5110898;28;20909;-56
2021/09/30 15:49:52;;;;;;;5.77;1.20;;;17.70;64.70;;;;;;5110797;28;20376;-56
2021/09/30 15:52:18;;;;;;;5.25;1.05;;;17.80;65.10;;;;;;5111230;28;20513;-56